Newport, ME (04953)

10:36 PM EST on February 09, 2016 (GMT -0500)
Downtown Newport | | Change Station
CLOSE
Current Station
Personal Weather Station
Location: Newport, ME
Elevation: 227 ft
Nearby Weather Stations

Elev 227 ft 44.84 °N, 69.28 °W | Updated 3 seconds ago

Mostly Cloudy
Mostly Cloudy
15.9 °F
Feels Like 16 °F
N
0.0
Wind Variable Wind from NW
Gusts 0.0 mph

Today
High -- | Low -- °F
--% Chance of Precip.
Yesterday
High -- | Low -- °F
Precip. -- in
Pressure 29.59 in
Visibility 5.0 miles
Clouds Overcast 2700 ft
Windchill 16 °F
Dew Point 16 °F
Humidity 100%
Rainfall 0.00 in
Snow Depth Not available.
6:47 AM 4:56 PM
Waxing Crescent, 3% visible
METAR KBGR 100253Z 33006KT 5SM -SN BR OVC027 M07/M08 A2957 RMK AO2 SLP019 P0000 60000 T10671083 58012
Pressure 29.59 in
Visibility 5.0 miles
Clouds Overcast 2700 ft
Windchill 16 °F
Dew Point 16 °F
Humidity 100%
Rainfall 0.00 in
Snow Depth Not available.
6:47 AM 4:56 PM
Waxing Crescent, 3% visible
METAR KBGR 100253Z 33006KT 5SM -SN BR OVC027 M07/M08 A2957 RMK AO2 SLP019 P0000 60000 T10671083 58012

10-Day Weather Forecast

Almanac

Astronomy

Feb. 09, 2016 Rise Set
Actual Time
Civil Twilight
Nautical Twilight
Astronomical Twilight
Moon
Length of Visible Light
Length of Day
Tomorrow will be .
, % of the Moon is Illuminated

Today's Extremes

State Highs State Lows

Community

WunderPhotos

Upload Photos

1,891,792 photos uploaded!

WunderBlog® & News

Nearby

Air Quality

  Air Quality AQ Index Pollutant
Not available.

Snow Depth

Station Depth Elevation

Earthquake Activity

City Distance Mag. Time & Date
Minimum magnitude displayed is 2.5.

Coastal Water Temperatures

Place Temperature

Stations

Nearby Weather Stations

Station Location Temp. Windchill Dew Point Humidity Wind Precip. Elev Updated Type
                   

Watches & Warnings

There are currently no watches in effect.